sensor_id;sensor_type;location;lat;lon;timestamp;temperature;humidity
48019;DHT22;33786;48.690;9.562;2022-07-23T00:00:09;22.50;99.90
48019;DHT22;33786;48.690;9.562;2022-07-23T00:02:36;22.40;99.90
48019;DHT22;33786;48.690;9.562;2022-07-23T00:05:03;22.20;99.90
48019;DHT22;33786;48.690;9.562;2022-07-23T00:07:30;22.00;99.90
48019;DHT22;33786;48.690;9.562;2022-07-23T00:09:56;22.00;99.90
48019;DHT22;33786;48.690;9.562;2022-07-23T00:12:23;22.00;99.90
48019;DHT22;33786;48.690;9.562;2022-07-23T00:14:50;22.00;99.90
48019;DHT22;33786;48.690;9.562;2022-07-23T00:17:17;22.00;99.90
48019;DHT22;33786;48.690;9.562;2022-07-23T00:19:44;21.90;99.90
48019;DHT22;33786;48.690;9.562;2022-07-23T00:22:11;21.90;99.90
48019;DHT22;33786;48.690;9.562;2022-07-23T00:24:37;21.90;99.90
48019;DHT22;33786;48.690;9.562;2022-07-23T00:27:04;22.00;99.90
48019;DHT22;33786;48.690;9.562;2022-07-23T00:29:31;22.00;99.90
48019;DHT22;33786;48.690;9.562;2022-07-23T00:31:57;22.00;99.90
48019;DHT22;33786;48.690;9.562;2022-07-23T00:34:24;21.90;99.90
48019;DHT22;33786;48.690;9.562;2022-07-23T00:36:51;21.70;99.90
48019;DHT22;33786;48.690;9.562;2022-07-23T00:39:20;21.60;99.90
48019;DHT22;33786;48.690;9.562;2022-07-23T00:41:48;21.60;99.90
48019;DHT22;33786;48.690;9.562;2022-07-23T00:44:16;21.50;99.90
48019;DHT22;33786;48.690;9.562;2022-07-23T00:46:52;21.50;99.90
48019;DHT22;33786;48.690;9.562;2022-07-23T00:49:20;21.50;99.90
48019;DHT22;33786;48.690;9.562;2022-07-23T00:51:48;21.50;99.90
48019;DHT22;33786;48.690;9.562;2022-07-23T00:54:16;21.50;99.90
48019;DHT22;33786;48.690;9.562;2022-07-23T00:56:43;21.50;99.90
48019;DHT22;33786;48.690;9.562;2022-07-23T00:59:10;21.50;99.90
48019;DHT22;33786;48.690;9.562;2022-07-23T01:01:37;21.40;99.90
48019;DHT22;33786;48.690;9.562;2022-07-23T01:04:04;21.40;99.90
48019;DHT22;33786;48.690;9.562;2022-07-23T01:06:34;21.30;99.90
48019;DHT22;33786;48.690;9.562;2022-07-23T01:09:02;21.30;99.90
48019;DHT22;33786;48.690;9.562;2022-07-23T01:11:29;21.20;99.90
48019;DHT22;33786;48.690;9.562;2022-07-23T01:13:56;21.20;99.90
48019;DHT22;33786;48.690;9.562;2022-07-23T01:16:23;21.20;99.90
48019;DHT22;33786;48.690;9.562;2022-07-23T01:18:50;21.10;99.90
48019;DHT22;33786;48.690;9.562;2022-07-23T01:21:17;21.10;99.90
48019;DHT22;33786;48.690;9.562;2022-07-23T01:23:44;21.20;99.90
48019;DHT22;33786;48.690;9.562;2022-07-23T01:26:10;21.20;99.90
48019;DHT22;33786;48.690;9.562;2022-07-23T01:28:37;21.10;99.90
48019;DHT22;33786;48.690;9.562;2022-07-23T01:31:04;21.20;99.90
48019;DHT22;33786;48.690;9.562;2022-07-23T01:33:31;21.10;99.90
48019;DHT22;33786;48.690;9.562;2022-07-23T01:35:57;21.20;99.90
48019;DHT22;33786;48.690;9.562;2022-07-23T01:38:24;21.20;99.90
48019;DHT22;33786;48.690;9.562;2022-07-23T01:40:51;21.10;99.90
48019;DHT22;33786;48.690;9.562;2022-07-23T01:43:21;21.00;99.90
48019;DHT22;33786;48.690;9.562;2022-07-23T01:45:50;21.00;99.90
48019;DHT22;33786;48.690;9.562;2022-07-23T01:48:17;20.90;99.90
48019;DHT22;33786;48.690;9.562;2022-07-23T01:50:45;20.90;99.90
48019;DHT22;33786;48.690;9.562;2022-07-23T01:53:12;20.90;99.90
48019;DHT22;33786;48.690;9.562;2022-07-23T01:55:39;20.90;99.90
48019;DHT22;33786;48.690;9.562;2022-07-23T01:58:05;20.90;99.90
48019;DHT22;33786;48.690;9.562;2022-07-23T02:00:32;20.90;99.90
48019;DHT22;33786;48.690;9.562;2022-07-23T02:02:59;20.90;99.90
48019;DHT22;33786;48.690;9.562;2022-07-23T02:05:26;20.90;99.90
48019;DHT22;33786;48.690;9.562;2022-07-23T02:07:55;20.90;99.90
48019;DHT22;33786;48.690;9.562;2022-07-23T02:10:21;20.90;99.90
48019;DHT22;33786;48.690;9.562;2022-07-23T02:12:48;20.90;99.90
48019;DHT22;33786;48.690;9.562;2022-07-23T02:15:15;20.90;99.90
48019;DHT22;33786;48.690;9.562;2022-07-23T02:17:42;20.90;99.90
48019;DHT22;33786;48.690;9.562;2022-07-23T02:20:09;20.90;99.90
48019;DHT22;33786;48.690;9.562;2022-07-23T02:22:36;20.70;99.90
48019;DHT22;33786;48.690;9.562;2022-07-23T02:25:04;20.70;99.90
48019;DHT22;33786;48.690;9.562;2022-07-23T02:27:31;20.60;99.90
48019;DHT22;33786;48.690;9.562;2022-07-23T02:29:58;20.50;99.90
48019;DHT22;33786;48.690;9.562;2022-07-23T02:32:24;20.40;99.90
48019;DHT22;33786;48.690;9.562;2022-07-23T02:34:51;20.20;99.90
48019;DHT22;33786;48.690;9.562;2022-07-23T02:37:18;20.10;99.90
48019;DHT22;33786;48.690;9.562;2022-07-23T02:39:45;20.00;99.90
48019;DHT22;33786;48.690;9.562;2022-07-23T02:42:12;20.00;99.90
48019;DHT22;33786;48.690;9.562;2022-07-23T02:44:38;19.90;99.90
48019;DHT22;33786;48.690;9.562;2022-07-23T02:47:05;19.90;99.90
48019;DHT22;33786;48.690;9.562;2022-07-23T02:49:32;19.80;99.90
48019;DHT22;33786;48.690;9.562;2022-07-23T02:51:58;19.80;99.90
48019;DHT22;33786;48.690;9.562;2022-07-23T02:54:25;19.70;99.90
48019;DHT22;33786;48.690;9.562;2022-07-23T02:56:52;19.80;99.90
48019;DHT22;33786;48.690;9.562;2022-07-23T02:59:19;19.80;99.90
48019;DHT22;33786;48.690;9.562;2022-07-23T03:01:46;19.80;99.90
48019;DHT22;33786;48.690;9.562;2022-07-23T03:04:12;19.80;99.90
48019;DHT22;33786;48.690;9.562;2022-07-23T03:06:39;19.80;99.90
48019;DHT22;33786;48.690;9.562;2022-07-23T03:09:06;19.80;99.90
48019;DHT22;33786;48.690;9.562;2022-07-23T03:11:33;19.80;99.90
48019;DHT22;33786;48.690;9.562;2022-07-23T03:13:59;19.70;99.90
48019;DHT22;33786;48.690;9.562;2022-07-23T03:16:26;19.60;99.90
48019;DHT22;33786;48.690;9.562;2022-07-23T03:18:53;19.60;99.90
48019;DHT22;33786;48.690;9.562;2022-07-23T03:21:19;19.60;99.90
48019;DHT22;33786;48.690;9.562;2022-07-23T03:23:46;19.60;99.90
48019;DHT22;33786;48.690;9.562;2022-07-23T03:26:13;19.60;99.90
48019;DHT22;33786;48.690;9.562;2022-07-23T03:28:39;19.70;99.90
48019;DHT22;33786;48.690;9.562;2022-07-23T03:31:06;19.60;99.90
48019;DHT22;33786;48.690;9.562;2022-07-23T03:33:33;19.60;99.90
48019;DHT22;33786;48.690;9.562;2022-07-23T03:36:00;19.60;99.90
48019;DHT22;33786;48.690;9.562;2022-07-23T03:38:27;19.60;99.90
48019;DHT22;33786;48.690;9.562;2022-07-23T03:40:53;19.60;99.90
48019;DHT22;33786;48.690;9.562;2022-07-23T03:43:20;19.50;99.90
48019;DHT22;33786;48.690;9.562;2022-07-23T03:45:47;19.40;99.90
48019;DHT22;33786;48.690;9.562;2022-07-23T03:48:13;19.40;99.90
48019;DHT22;33786;48.690;9.562;2022-07-23T03:50:40;19.30;99.90
48019;DHT22;33786;48.690;9.562;2022-07-23T03:53:07;19.30;99.90
48019;DHT22;33786;48.690;9.562;2022-07-23T03:55:33;19.20;99.90
48019;DHT22;33786;48.690;9.562;2022-07-23T03:58:00;19.00;99.90
48019;DHT22;33786;48.690;9.562;2022-07-23T04:00:27;19.00;99.90
48019;DHT22;33786;48.690;9.562;2022-07-23T04:02:54;19.00;99.90
48019;DHT22;33786;48.690;9.562;2022-07-23T04:05:20;18.90;99.90
48019;DHT22;33786;48.690;9.562;2022-07-23T04:07:47;18.80;99.90
48019;DHT22;33786;48.690;9.562;2022-07-23T04:10:14;18.80;99.90
48019;DHT22;33786;48.690;9.562;2022-07-23T04:12:41;18.80;99.90
48019;DHT22;33786;48.690;9.562;2022-07-23T04:15:08;18.80;99.90
48019;DHT22;33786;48.690;9.562;2022-07-23T04:17:35;18.80;99.90
48019;DHT22;33786;48.690;9.562;2022-07-23T04:20:02;18.80;99.90
48019;DHT22;33786;48.690;9.562;2022-07-23T04:22:29;19.00;99.90
48019;DHT22;33786;48.690;9.562;2022-07-23T04:24:55;19.30;99.90
48019;DHT22;33786;48.690;9.562;2022-07-23T04:27:22;19.50;99.90
48019;DHT22;33786;48.690;9.562;2022-07-23T04:29:49;19.70;99.90
48019;DHT22;33786;48.690;9.562;2022-07-23T04:32:15;20.20;99.90
48019;DHT22;33786;48.690;9.562;2022-07-23T04:34:42;20.70;99.90
48019;DHT22;33786;48.690;9.562;2022-07-23T04:37:09;21.30;99.90
48019;DHT22;33786;48.690;9.562;2022-07-23T04:39:35;21.90;99.90
48019;DHT22;33786;48.690;9.562;2022-07-23T04:42:02;22.50;99.90
48019;DHT22;33786;48.690;9.562;2022-07-23T04:44:29;22.90;99.90
48019;DHT22;33786;48.690;9.562;2022-07-23T04:46:56;23.00;99.90
48019;DHT22;33786;48.690;9.562;2022-07-23T04:49:22;23.50;99.90
48019;DHT22;33786;48.690;9.562;2022-07-23T04:51:49;23.90;99.90
48019;DHT22;33786;48.690;9.562;2022-07-23T04:54:16;24.50;99.90
48019;DHT22;33786;48.690;9.562;2022-07-23T04:56:44;25.00;99.90
48019;DHT22;33786;48.690;9.562;2022-07-23T04:59:10;25.30;99.90
48019;DHT22;33786;48.690;9.562;2022-07-23T05:01:37;25.50;99.50
48019;DHT22;33786;48.690;9.562;2022-07-23T05:04:04;25.90;98.70
48019;DHT22;33786;48.690;9.562;2022-07-23T05:06:32;26.40;97.60
48019;DHT22;33786;48.690;9.562;2022-07-23T05:08:59;26.20;97.30
48019;DHT22;33786;48.690;9.562;2022-07-23T05:11:26;26.10;97.50
48019;DHT22;33786;48.690;9.562;2022-07-23T05:13:53;26.30;97.40
48019;DHT22;33786;48.690;9.562;2022-07-23T05:16:19;27.10;96.10
48019;DHT22;33786;48.690;9.562;2022-07-23T05:18:46;28.00;94.70
48019;DHT22;33786;48.690;9.562;2022-07-23T05:21:13;28.60;93.40
48019;DHT22;33786;48.690;9.562;2022-07-23T05:23:40;29.80;91.40
48019;DHT22;33786;48.690;9.562;2022-07-23T05:26:06;30.50;89.40
48019;DHT22;33786;48.690;9.562;2022-07-23T05:28:33;30.40;87.30
48019;DHT22;33786;48.690;9.562;2022-07-23T05:31:00;30.60;86.60
48019;DHT22;33786;48.690;9.562;2022-07-23T05:33:26;29.50;88.50
48019;DHT22;33786;48.690;9.562;2022-07-23T05:35:53;28.50;90.50
48019;DHT22;33786;48.690;9.562;2022-07-23T05:38:20;27.60;92.00
48019;DHT22;33786;48.690;9.562;2022-07-23T05:40:47;26.80;93.70
48019;DHT22;33786;48.690;9.562;2022-07-23T05:43:13;26.10;94.40
48019;DHT22;33786;48.690;9.562;2022-07-23T05:45:40;25.60;96.00
48019;DHT22;33786;48.690;9.562;2022-07-23T05:48:07;25.30;98.10
48019;DHT22;33786;48.690;9.562;2022-07-23T05:50:33;24.90;99.60
48019;DHT22;33786;48.690;9.562;2022-07-23T05:53:00;24.70;99.90
48019;DHT22;33786;48.690;9.562;2022-07-23T05:55:27;24.70;99.90
48019;DHT22;33786;48.690;9.562;2022-07-23T05:57:56;25.80;98.90
48019;DHT22;33786;48.690;9.562;2022-07-23T06:00:23;28.20;95.00
48019;DHT22;33786;48.690;9.562;2022-07-23T06:02:50;30.00;90.80
48019;DHT22;33786;48.690;9.562;2022-07-23T06:05:21;31.60;86.10
48019;DHT22;33786;48.690;9.562;2022-07-23T06:07:48;31.50;84.70
48019;DHT22;33786;48.690;9.562;2022-07-23T06:10:15;30.50;82.70
48019;DHT22;33786;48.690;9.562;2022-07-23T06:12:41;29.40;87.60
48019;DHT22;33786;48.690;9.562;2022-07-23T06:15:08;28.70;90.00
48019;DHT22;33786;48.690;9.562;2022-07-23T06:17:37;28.10;91.20
48019;DHT22;33786;48.690;9.562;2022-07-23T06:20:09;27.40;92.70
48019;DHT22;33786;48.690;9.562;2022-07-23T06:22:36;27.00;92.20
48019;DHT22;33786;48.690;9.562;2022-07-23T06:25:03;27.20;91.90
48019;DHT22;33786;48.690;9.562;2022-07-23T06:27:37;27.30;92.10
48019;DHT22;33786;48.690;9.562;2022-07-23T06:30:04;28.50;90.70
48019;DHT22;33786;48.690;9.562;2022-07-23T06:32:32;28.80;88.20
48019;DHT22;33786;48.690;9.562;2022-07-23T06:34:58;28.40;88.00
48019;DHT22;33786;48.690;9.562;2022-07-23T06:37:25;28.10;90.10
48019;DHT22;33786;48.690;9.562;2022-07-23T06:39:52;28.60;87.10
48019;DHT22;33786;48.690;9.562;2022-07-23T06:42:19;30.50;82.70
48019;DHT22;33786;48.690;9.562;2022-07-23T06:44:46;32.30;77.30
48019;DHT22;33786;48.690;9.562;2022-07-23T06:47:13;34.80;71.10
48019;DHT22;33786;48.690;9.562;2022-07-23T06:49:39;35.30;67.60
48019;DHT22;33786;48.690;9.562;2022-07-23T06:52:07;36.30;64.70
48019;DHT22;33786;48.690;9.562;2022-07-23T06:54:34;36.90;63.60
48019;DHT22;33786;48.690;9.562;2022-07-23T06:57:01;37.30;61.80
48019;DHT22;33786;48.690;9.562;2022-07-23T06:59:28;37.50;60.80
48019;DHT22;33786;48.690;9.562;2022-07-23T07:01:54;37.10;60.60
48019;DHT22;33786;48.690;9.562;2022-07-23T07:04:21;36.60;60.50
48019;DHT22;33786;48.690;9.562;2022-07-23T07:06:48;37.60;59.30
48019;DHT22;33786;48.690;9.562;2022-07-23T07:09:15;37.80;57.60
48019;DHT22;33786;48.690;9.562;2022-07-23T07:11:41;36.00;59.90
48019;DHT22;33786;48.690;9.562;2022-07-23T07:14:08;34.10;63.40
48019;DHT22;33786;48.690;9.562;2022-07-23T07:16:35;32.70;66.80
48019;DHT22;33786;48.690;9.562;2022-07-23T07:19:01;31.70;68.10
48019;DHT22;33786;48.690;9.562;2022-07-23T07:21:29;31.30;69.90
48019;DHT22;33786;48.690;9.562;2022-07-23T07:23:56;30.60;71.60
48019;DHT22;33786;48.690;9.562;2022-07-23T07:26:23;30.30;72.70
48019;DHT22;33786;48.690;9.562;2022-07-23T07:28:49;30.70;73.40
48019;DHT22;33786;48.690;9.562;2022-07-23T07:31:16;31.40;72.10
48019;DHT22;33786;48.690;9.562;2022-07-23T07:33:43;32.90;70.70
48019;DHT22;33786;48.690;9.562;2022-07-23T07:36:10;34.70;67.50
48019;DHT22;33786;48.690;9.562;2022-07-23T07:38:44;35.80;64.50
48019;DHT22;33786;48.690;9.562;2022-07-23T07:41:10;36.80;61.80
48019;DHT22;33786;48.690;9.562;2022-07-23T07:43:38;36.30;63.20
48019;DHT22;33786;48.690;9.562;2022-07-23T07:46:05;36.20;62.40
48019;DHT22;33786;48.690;9.562;2022-07-23T07:48:37;36.20;63.20
48019;DHT22;33786;48.690;9.562;2022-07-23T07:51:04;37.10;60.80
48019;DHT22;33786;48.690;9.562;2022-07-23T07:53:30;35.10;61.90
48019;DHT22;33786;48.690;9.562;2022-07-23T07:55:57;33.80;64.40
48019;DHT22;33786;48.690;9.562;2022-07-23T07:58:24;33.90;64.60
48019;DHT22;33786;48.690;9.562;2022-07-23T08:00:51;35.50;63.00
48019;DHT22;33786;48.690;9.562;2022-07-23T08:03:18;37.20;60.70
48019;DHT22;33786;48.690;9.562;2022-07-23T08:05:45;38.40;58.00
48019;DHT22;33786;48.690;9.562;2022-07-23T08:08:12;37.90;58.50
48019;DHT22;33786;48.690;9.562;2022-07-23T08:10:41;37.50;56.50
48019;DHT22;33786;48.690;9.562;2022-07-23T08:13:10;36.40;58.30
48019;DHT22;33786;48.690;9.562;2022-07-23T08:15:38;36.20;58.40
48019;DHT22;33786;48.690;9.562;2022-07-23T08:18:05;35.30;58.70
48019;DHT22;33786;48.690;9.562;2022-07-23T08:20:32;34.00;60.20
48019;DHT22;33786;48.690;9.562;2022-07-23T08:23:00;33.30;60.10
48019;DHT22;33786;48.690;9.562;2022-07-23T08:25:28;33.00;61.90
48019;DHT22;33786;48.690;9.562;2022-07-23T08:27:55;32.50;62.90
48019;DHT22;33786;48.690;9.562;2022-07-23T08:30:21;31.70;63.60
48019;DHT22;33786;48.690;9.562;2022-07-23T08:32:56;31.20;65.10
48019;DHT22;33786;48.690;9.562;2022-07-23T08:35:32;31.30;65.40
48019;DHT22;33786;48.690;9.562;2022-07-23T08:38:00;31.00;64.00
48019;DHT22;33786;48.690;9.562;2022-07-23T08:40:29;31.00;63.60
48019;DHT22;33786;48.690;9.562;2022-07-23T08:42:56;31.30;64.30
48019;DHT22;33786;48.690;9.562;2022-07-23T08:45:24;31.90;62.30
48019;DHT22;33786;48.690;9.562;2022-07-23T08:47:52;32.30;61.50
48019;DHT22;33786;48.690;9.562;2022-07-23T08:50:19;32.10;61.60
48019;DHT22;33786;48.690;9.562;2022-07-23T08:52:47;31.80;62.10
48019;DHT22;33786;48.690;9.562;2022-07-23T08:55:15;32.30;60.90
48019;DHT22;33786;48.690;9.562;2022-07-23T08:57:42;32.60;60.90
48019;DHT22;33786;48.690;9.562;2022-07-23T09:00:09;32.80;62.50
48019;DHT22;33786;48.690;9.562;2022-07-23T09:02:40;33.20;60.40
48019;DHT22;33786;48.690;9.562;2022-07-23T09:05:07;32.80;60.40
48019;DHT22;33786;48.690;9.562;2022-07-23T09:07:35;32.00;62.60
48019;DHT22;33786;48.690;9.562;2022-07-23T09:10:06;31.60;61.80
48019;DHT22;33786;48.690;9.562;2022-07-23T09:12:33;31.70;62.10
48019;DHT22;33786;48.690;9.562;2022-07-23T09:15:06;31.80;64.00
48019;DHT22;33786;48.690;9.562;2022-07-23T09:17:41;31.80;63.00
48019;DHT22;33786;48.690;9.562;2022-07-23T09:20:08;32.10;63.70
48019;DHT22;33786;48.690;9.562;2022-07-23T09:22:35;32.10;62.00
48019;DHT22;33786;48.690;9.562;2022-07-23T09:25:10;32.10;61.40
48019;DHT22;33786;48.690;9.562;2022-07-23T09:27:47;32.10;61.50
48019;DHT22;33786;48.690;9.562;2022-07-23T09:30:20;31.90;62.20
48019;DHT22;33786;48.690;9.562;2022-07-23T09:35:46;31.90;63.70
48019;DHT22;33786;48.690;9.562;2022-07-23T09:38:14;32.40;63.10
48019;DHT22;33786;48.690;9.562;2022-07-23T09:40:41;32.60;63.90
48019;DHT22;33786;48.690;9.562;2022-07-23T09:43:07;32.70;63.00
48019;DHT22;33786;48.690;9.562;2022-07-23T09:45:34;32.80;62.70
48019;DHT22;33786;48.690;9.562;2022-07-23T09:48:11;32.60;63.50
48019;DHT22;33786;48.690;9.562;2022-07-23T09:50:39;32.40;63.70
48019;DHT22;33786;48.690;9.562;2022-07-23T09:53:06;32.00;64.60
48019;DHT22;33786;48.690;9.562;2022-07-23T09:55:33;32.40;64.30
48019;DHT22;33786;48.690;9.562;2022-07-23T09:58:09;32.30;64.90
48019;DHT22;33786;48.690;9.562;2022-07-23T10:00:39;32.20;64.10
48019;DHT22;33786;48.690;9.562;2022-07-23T10:03:07;32.40;64.10
48019;DHT22;33786;48.690;9.562;2022-07-23T10:05:34;32.60;65.10
48019;DHT22;33786;48.690;9.562;2022-07-23T10:08:02;32.50;65.70
48019;DHT22;33786;48.690;9.562;2022-07-23T10:10:29;32.10;64.00
48019;DHT22;33786;48.690;9.562;2022-07-23T10:12:56;32.00;63.60
48019;DHT22;33786;48.690;9.562;2022-07-23T10:15:52;31.90;64.00
48019;DHT22;33786;48.690;9.562;2022-07-23T10:18:19;32.30;64.70
48019;DHT22;33786;48.690;9.562;2022-07-23T10:20:46;32.80;64.30
48019;DHT22;33786;48.690;9.562;2022-07-23T10:26:24;32.10;63.30
48019;DHT22;33786;48.690;9.562;2022-07-23T10:31:38;32.00;65.90
48019;DHT22;33786;48.690;9.562;2022-07-23T10:37:16;32.40;64.10
48019;DHT22;33786;48.690;9.562;2022-07-23T10:42:36;33.10;63.00
48019;DHT22;33786;48.690;9.562;2022-07-23T10:45:46;33.00;62.50
48019;DHT22;33786;48.690;9.562;2022-07-23T10:47:54;33.20;62.50
48019;DHT22;33786;48.690;9.562;2022-07-23T10:50:26;32.90;62.70
48019;DHT22;33786;48.690;9.562;2022-07-23T10:53:11;32.90;64.00
48019;DHT22;33786;48.690;9.562;2022-07-23T10:55:41;32.80;62.10
48019;DHT22;33786;48.690;9.562;2022-07-23T10:58:07;32.60;62.80
48019;DHT22;33786;48.690;9.562;2022-07-23T11:00:35;32.80;65.20
48019;DHT22;33786;48.690;9.562;2022-07-23T11:03:03;32.50;63.40
48019;DHT22;33786;48.690;9.562;2022-07-23T11:05:41;32.60;65.90
48019;DHT22;33786;48.690;9.562;2022-07-23T11:08:10;32.40;64.10
48019;DHT22;33786;48.690;9.562;2022-07-23T11:10:48;32.60;64.00
48019;DHT22;33786;48.690;9.562;2022-07-23T11:27:07;32.30;63.10
48019;DHT22;33786;48.690;9.562;2022-07-23T11:34:46;32.60;61.70
48019;DHT22;33786;48.690;9.562;2022-07-23T11:39:58;32.50;62.20
48019;DHT22;33786;48.690;9.562;2022-07-23T11:42:25;32.20;63.90
48019;DHT22;33786;48.690;9.562;2022-07-23T11:44:57;32.00;64.60
48019;DHT22;33786;48.690;9.562;2022-07-23T11:47:24;32.00;65.20
48019;DHT22;33786;48.690;9.562;2022-07-23T11:49:51;32.00;65.70
48019;DHT22;33786;48.690;9.562;2022-07-23T11:52:18;32.40;64.50
48019;DHT22;33786;48.690;9.562;2022-07-23T11:54:50;32.60;64.70
48019;DHT22;33786;48.690;9.562;2022-07-23T11:57:18;33.00;63.50
48019;DHT22;33786;48.690;9.562;2022-07-23T11:59:46;32.90;60.40
48019;DHT22;33786;48.690;9.562;2022-07-23T12:02:13;32.70;62.70
48019;DHT22;33786;48.690;9.562;2022-07-23T12:09:54;32.10;62.20
48019;DHT22;33786;48.690;9.562;2022-07-23T12:12:22;32.20;60.10
48019;DHT22;33786;48.690;9.562;2022-07-23T12:14:49;32.40;61.10
48019;DHT22;33786;48.690;9.562;2022-07-23T12:17:16;32.60;62.00
48019;DHT22;33786;48.690;9.562;2022-07-23T12:19:43;32.70;59.60
48019;DHT22;33786;48.690;9.562;2022-07-23T12:22:11;32.80;60.00
48019;DHT22;33786;48.690;9.562;2022-07-23T12:24:57;32.80;60.40
48019;DHT22;33786;48.690;9.562;2022-07-23T12:27:24;32.20;60.00
48019;DHT22;33786;48.690;9.562;2022-07-23T12:29:51;32.80;60.60
48019;DHT22;33786;48.690;9.562;2022-07-23T12:35:02;33.20;61.60
48019;DHT22;33786;48.690;9.562;2022-07-23T12:37:33;33.00;59.60
48019;DHT22;33786;48.690;9.562;2022-07-23T12:42:49;32.70;61.60
48019;DHT22;33786;48.690;9.562;2022-07-23T12:45:16;32.40;60.00
48019;DHT22;33786;48.690;9.562;2022-07-23T12:53:11;32.70;59.50
48019;DHT22;33786;48.690;9.562;2022-07-23T12:55:50;32.80;60.40
48019;DHT22;33786;48.690;9.562;2022-07-23T13:01:09;33.20;60.40
48019;DHT22;33786;48.690;9.562;2022-07-23T13:03:38;33.20;60.40
48019;DHT22;33786;48.690;9.562;2022-07-23T13:06:07;33.00;60.20
48019;DHT22;33786;48.690;9.562;2022-07-23T13:08:35;32.90;59.40
48019;DHT22;33786;48.690;9.562;2022-07-23T13:11:03;32.50;60.10
48019;DHT22;33786;48.690;9.562;2022-07-23T13:13:31;32.10;58.50
48019;DHT22;33786;48.690;9.562;2022-07-23T13:15:59;31.60;59.70
48019;DHT22;33786;48.690;9.562;2022-07-23T13:18:26;31.50;61.10
48019;DHT22;33786;48.690;9.562;2022-07-23T13:20:54;31.10;62.10
48019;DHT22;33786;48.690;9.562;2022-07-23T13:23:21;31.10;62.90
48019;DHT22;33786;48.690;9.562;2022-07-23T13:25:48;31.40;63.50
48019;DHT22;33786;48.690;9.562;2022-07-23T13:28:15;31.50;63.70
48019;DHT22;33786;48.690;9.562;2022-07-23T13:30:43;31.90;62.30
48019;DHT22;33786;48.690;9.562;2022-07-23T13:33:10;31.90;61.00
48019;DHT22;33786;48.690;9.562;2022-07-23T13:35:37;31.50;60.70
48019;DHT22;33786;48.690;9.562;2022-07-23T13:38:05;31.50;63.40
48019;DHT22;33786;48.690;9.562;2022-07-23T13:40:36;31.20;62.20
48019;DHT22;33786;48.690;9.562;2022-07-23T13:43:05;31.10;62.10
48019;DHT22;33786;48.690;9.562;2022-07-23T13:45:34;31.20;62.70
48019;DHT22;33786;48.690;9.562;2022-07-23T13:48:01;31.00;61.70
48019;DHT22;33786;48.690;9.562;2022-07-23T13:50:33;31.00;61.80
48019;DHT22;33786;48.690;9.562;2022-07-23T13:53:00;30.80;62.20
48019;DHT22;33786;48.690;9.562;2022-07-23T13:55:27;31.30;62.90
48019;DHT22;33786;48.690;9.562;2022-07-23T13:57:56;31.70;63.90
48019;DHT22;33786;48.690;9.562;2022-07-23T14:00:23;32.00;61.90
48019;DHT22;33786;48.690;9.562;2022-07-23T14:03:10;32.10;61.10
48019;DHT22;33786;48.690;9.562;2022-07-23T14:05:37;32.00;62.00
48019;DHT22;33786;48.690;9.562;2022-07-23T14:08:04;31.50;61.40
48019;DHT22;33786;48.690;9.562;2022-07-23T14:10:31;31.20;61.50
48019;DHT22;33786;48.690;9.562;2022-07-23T14:12:58;31.10;61.90
48019;DHT22;33786;48.690;9.562;2022-07-23T14:15:27;30.90;61.20
48019;DHT22;33786;48.690;9.562;2022-07-23T14:17:55;31.00;62.30
48019;DHT22;33786;48.690;9.562;2022-07-23T14:20:22;31.10;62.90
48019;DHT22;33786;48.690;9.562;2022-07-23T14:22:50;31.40;62.00
48019;DHT22;33786;48.690;9.562;2022-07-23T14:25:17;31.60;63.80
48019;DHT22;33786;48.690;9.562;2022-07-23T14:27:44;31.70;60.70
48019;DHT22;33786;48.690;9.562;2022-07-23T14:30:11;31.60;60.20
48019;DHT22;33786;48.690;9.562;2022-07-23T14:32:39;31.60;62.50
48019;DHT22;33786;48.690;9.562;2022-07-23T14:35:06;31.10;62.20
48019;DHT22;33786;48.690;9.562;2022-07-23T14:37:36;31.10;63.60
48019;DHT22;33786;48.690;9.562;2022-07-23T14:40:03;31.00;63.70
48019;DHT22;33786;48.690;9.562;2022-07-23T14:42:30;31.10;63.40
48019;DHT22;33786;48.690;9.562;2022-07-23T14:44:57;31.00;62.70
48019;DHT22;33786;48.690;9.562;2022-07-23T14:47:23;30.90;63.30
48019;DHT22;33786;48.690;9.562;2022-07-23T14:49:51;30.80;64.00
48019;DHT22;33786;48.690;9.562;2022-07-23T14:52:18;30.80;64.70
48019;DHT22;33786;48.690;9.562;2022-07-23T14:54:45;30.70;64.40
48019;DHT22;33786;48.690;9.562;2022-07-23T14:57:15;30.80;64.60
48019;DHT22;33786;48.690;9.562;2022-07-23T14:59:42;30.70;64.60
48019;DHT22;33786;48.690;9.562;2022-07-23T15:02:09;30.70;64.70
48019;DHT22;33786;48.690;9.562;2022-07-23T15:04:36;30.70;64.20
48019;DHT22;33786;48.690;9.562;2022-07-23T15:07:04;30.70;64.40
48019;DHT22;33786;48.690;9.562;2022-07-23T15:09:31;30.60;64.90
48019;DHT22;33786;48.690;9.562;2022-07-23T15:11:58;30.70;64.90
48019;DHT22;33786;48.690;9.562;2022-07-23T15:14:25;30.40;63.60
48019;DHT22;33786;48.690;9.562;2022-07-23T15:16:57;30.50;64.70
48019;DHT22;33786;48.690;9.562;2022-07-23T15:19:25;30.60;63.00
48019;DHT22;33786;48.690;9.562;2022-07-23T15:21:51;30.70;62.40
48019;DHT22;33786;48.690;9.562;2022-07-23T15:24:18;30.90;61.70
48019;DHT22;33786;48.690;9.562;2022-07-23T15:26:45;31.00;61.90
48019;DHT22;33786;48.690;9.562;2022-07-23T15:29:12;30.80;61.40
48019;DHT22;33786;48.690;9.562;2022-07-23T15:31:38;30.60;63.60
48019;DHT22;33786;48.690;9.562;2022-07-23T15:34:05;30.70;63.90
48019;DHT22;33786;48.690;9.562;2022-07-23T15:36:32;30.70;63.40
48019;DHT22;33786;48.690;9.562;2022-07-23T15:39:01;30.70;62.90
48019;DHT22;33786;48.690;9.562;2022-07-23T15:41:29;30.60;64.10
48019;DHT22;33786;48.690;9.562;2022-07-23T15:43:55;30.50;63.60
48019;DHT22;33786;48.690;9.562;2022-07-23T15:46:22;30.50;64.90
48019;DHT22;33786;48.690;9.562;2022-07-23T15:48:53;30.50;63.60
48019;DHT22;33786;48.690;9.562;2022-07-23T15:51:20;30.40;64.30
48019;DHT22;33786;48.690;9.562;2022-07-23T15:53:46;30.20;63.30
48019;DHT22;33786;48.690;9.562;2022-07-23T15:56:14;30.30;63.70
48019;DHT22;33786;48.690;9.562;2022-07-23T15:58:43;30.40;64.20
48019;DHT22;33786;48.690;9.562;2022-07-23T16:01:10;30.20;63.80
48019;DHT22;33786;48.690;9.562;2022-07-23T16:03:37;30.20;63.60
48019;DHT22;33786;48.690;9.562;2022-07-23T16:06:04;30.20;63.20
48019;DHT22;33786;48.690;9.562;2022-07-23T16:08:40;30.30;63.40
48019;DHT22;33786;48.690;9.562;2022-07-23T16:11:07;30.40;65.80
48019;DHT22;33786;48.690;9.562;2022-07-23T16:13:33;30.40;65.70
48019;DHT22;33786;48.690;9.562;2022-07-23T16:16:00;30.30;62.60
48019;DHT22;33786;48.690;9.562;2022-07-23T16:18:27;30.30;62.90
48019;DHT22;33786;48.690;9.562;2022-07-23T16:20:54;30.20;64.10
48019;DHT22;33786;48.690;9.562;2022-07-23T16:23:20;30.00;63.40
48019;DHT22;33786;48.690;9.562;2022-07-23T16:25:47;29.90;65.00
48019;DHT22;33786;48.690;9.562;2022-07-23T16:28:14;29.80;65.90